Time;durP1;ratioP1;P1;durP2;ratioP2;P2;SDS_P1;SDS_P2;PMS_P1;PMS_P2;Temp;Humidity;BMP_temperature;BMP_pressure;BME280_temperature;BME280_humidity;BME280_pressure;Samples;Min_cycle;Max_cycle;Signal;HPM_P1;HPM_P2
2022/11/09 00:00:05;;;;;;;;;;;;;;;11.05;82.91;99948.75;5013796;28;19953;-71
2022/11/09 00:02:35;;;;;;;;;;;;;;;11.02;82.56;99953.84;5013880;28;20332;-70
2022/11/09 00:05:11;;;;;;;;;;;;;;;10.99;82.74;99941.09;5014214;28;19926;-71
2022/11/09 00:07:39;;;;;;;;;;;;;;;10.96;82.72;99947.03;5013805;28;19925;-71
2022/11/09 00:10:08;;;;;;;;;;;;;;;10.92;82.85;99937.66;5014143;28;19933;-70
2022/11/09 00:12:37;;;;;;;;;;;;;;;10.91;82.92;99937.66;5014027;28;19925;-70
2022/11/09 00:15:06;;;;;;;;;;;;;;;10.88;82.81;99942.75;5016927;28;19933;-70
2022/11/09 00:17:36;;;;;;;;;;;;;;;10.84;82.98;99930.84;5017342;28;19930;-70
2022/11/09 00:20:05;;;;;;;;;;;;;;;10.83;83.26;99931.66;5017371;28;19929;-70
2022/11/09 00:22:33;;;;;;;;;;;;;;;10.79;83.10;99933.38;5017264;28;19925;-71
2022/11/09 00:25:01;;;;;;;;;;;;;;;10.76;83.20;99931.69;5017611;28;19926;-71
2022/11/09 00:27:29;;;;;;;;;;;;;;;10.75;83.10;99937.63;5017108;28;20398;-70
2022/11/09 00:29:58;;;;;;;;;;;;;;;10.73;83.08;99939.31;5017197;28;19961;-70
2022/11/09 00:32:26;;;;;;;;;;;;;;;10.72;83.22;99934.22;5017085;28;19925;-71
2022/11/09 00:34:56;;;;;;;;;;;;;;;10.69;83.05;99942.72;5015893;28;19929;-70
2022/11/09 00:37:25;;;;;;;;;;;;;;;10.67;83.24;99944.41;5017082;28;20391;-72
2022/11/09 00:39:53;;;;;;;;;;;;;;;10.67;83.49;99943.56;5016916;28;19925;-71
2022/11/09 00:42:21;;;;;;;;;;;;;;;10.66;83.26;99937.59;4999443;28;20286;-70
2022/11/09 00:44:51;;;;;;;;;;;;;;;10.67;83.38;99946.97;5017195;28;20422;-71
2022/11/09 00:47:19;;;;;;;;;;;;;;;10.66;83.29;99945.25;5015730;28;19952;-71
2022/11/09 00:49:47;;;;;;;;;;;;;;;10.65;83.27;99943.53;5015675;28;19926;-71
2022/11/09 00:52:17;;;;;;;;;;;;;;;10.64;83.28;99944.41;5015894;28;19992;-71
2022/11/09 00:54:45;;;;;;;;;;;;;;;10.65;83.68;99946.09;5032342;28;20375;-70
2022/11/09 00:57:14;;;;;;;;;;;;;;;10.63;83.13;99942.69;5015517;28;19933;-70
2022/11/09 00:59:45;;;;;;;;;;;;;;;10.61;83.21;99944.38;5016645;28;19925;-71
2022/11/09 01:02:14;;;;;;;;;;;;;;;10.60;83.38;99932.50;5016567;28;19925;-71
2022/11/09 01:04:42;;;;;;;;;;;;;;;10.60;83.39;99936.72;5016512;28;19926;-71
2022/11/09 01:07:11;;;;;;;;;;;;;;;10.60;83.15;99932.50;5015303;28;19925;-70
2022/11/09 01:09:41;;;;;;;;;;;;;;;10.60;83.48;99941.84;5032042;28;19926;-70
2022/11/09 01:12:09;;;;;;;;;;;;;;;10.60;83.45;99937.59;5016439;28;19926;-70
2022/11/09 01:14:37;;;;;;;;;;;;;;;10.59;83.15;99935.88;5016293;28;20390;-71
2022/11/09 01:17:06;;;;;;;;;;;;;;;10.62;83.39;99935.91;5015209;28;20392;-71
2022/11/09 01:19:34;;;;;;;;;;;;;;;10.64;83.36;99934.19;5014940;28;20295;-70
2022/11/09 01:22:03;;;;;;;;;;;;;;;10.64;83.44;99926.53;5016503;28;20388;-70
2022/11/09 01:24:31;;;;;;;;;;;;;;;10.66;83.32;99937.59;5015911;28;19925;-71
2022/11/09 01:27:01;;;;;;;;;;;;;;;10.68;83.46;99933.34;5014715;28;19925;-71
2022/11/09 01:29:30;;;;;;;;;;;;;;;10.70;83.11;99929.09;5016123;28;20442;-71
2022/11/09 01:31:58;;;;;;;;;;;;;;;10.72;83.22;99927.38;5016024;28;19933;-70
2022/11/09 01:34:30;;;;;;;;;;;;;;;10.75;83.27;99927.41;5016081;28;19925;-71
2022/11/09 01:37:00;;;;;;;;;;;;;;;10.77;83.18;99928.25;5016318;28;19971;-70
2022/11/09 01:39:30;;;;;;;;;;;;;;;10.78;82.87;99916.34;5016174;28;19952;-70
2022/11/09 01:41:58;;;;;;;;;;;;;;;10.80;82.94;99913.81;5014684;28;19933;-71
2022/11/09 01:44:29;;;;;;;;;;;;;;;10.83;83.01;99918.91;5015829;28;20378;-71
2022/11/09 01:47:00;;;;;;;;;;;;;;;10.85;82.99;99922.31;5015766;28;19925;-71
2022/11/09 01:49:39;;;;;;;;;;;;;;;10.89;83.03;99913.81;5014594;28;19926;-70
2022/11/09 01:52:12;;;;;;;;;;;;;;;10.89;83.03;99917.25;5031035;28;19932;-70
2022/11/09 01:54:44;;;;;;;;;;;;;;;10.91;83.03;99917.22;5015783;28;19975;-70
2022/11/09 01:57:18;;;;;;;;;;;;;;;10.92;83.06;99924.06;5015608;28;19931;-71
2022/11/09 01:59:55;;;;;;;;;;;;;;;10.94;83.14;99918.06;5015502;28;19932;-71
2022/11/09 02:02:24;;;;;;;;;;;;;;;10.97;82.77;99912.13;5015544;28;19925;-71
2022/11/09 02:05:00;;;;;;;;;;;;;;;10.96;82.84;99911.28;5014548;28;19925;-72
2022/11/09 02:07:29;;;;;;;;;;;;;;;10.98;82.63;99908.72;5014522;28;20287;-71
2022/11/09 02:10:01;;;;;;;;;;;;;;;11.01;82.80;99918.97;5015394;28;19932;-71
2022/11/09 02:12:33;;;;;;;;;;;;;;;11.03;82.82;99917.25;5014571;28;19925;-71
2022/11/09 02:15:05;;;;;;;;;;;;;;;11.05;82.54;99910.44;5015596;28;20426;-69
2022/11/09 02:17:34;;;;;;;;;;;;;;;11.05;82.59;99910.44;5030787;28;19932;-70
2022/11/09 02:20:09;;;;;;;;;;;;;;;11.09;82.64;99907.03;5014257;28;20431;-70
2022/11/09 02:22:38;;;;;;;;;;;;;;;11.10;82.78;99903.63;5015202;28;19925;-70
2022/11/09 02:25:06;;;;;;;;;;;;;;;11.08;82.57;99905.34;5015056;28;20402;-71
2022/11/09 02:27:38;;;;;;;;;;;;;;;11.07;82.32;99894.25;5015138;28;19975;-70
2022/11/09 02:30:07;;;;;;;;;;;;;;;11.09;82.55;99891.69;5013806;28;19925;-71
2022/11/09 02:32:36;;;;;;;;;;;;;;;11.12;82.40;99894.25;5014985;28;20368;-70
2022/11/09 02:35:04;;;;;;;;;;;;;;;11.12;82.46;99895.13;5014019;28;19926;-70
2022/11/09 02:37:35;;;;;;;;;;;;;;;11.14;82.44;99895.09;5013319;28;19925;-71
2022/11/09 02:40:07;;;;;;;;;;;;;;;11.17;82.24;99895.13;5015105;28;19947;-71
2022/11/09 02:42:36;;;;;;;;;;;;;;;11.19;82.12;99893.41;5013722;28;19925;-70
2022/11/09 02:45:06;;;;;;;;;;;;;;;11.20;82.00;99890.03;5015091;28;19948;-71
2022/11/09 02:47:37;;;;;;;;;;;;;;;11.24;81.92;99889.16;5014082;28;19948;-70
2022/11/09 02:50:06;;;;;;;;;;;;;;;11.26;82.00;99884.88;5013475;28;19932;-71
2022/11/09 02:52:36;;;;;;;;;;;;;;;11.26;81.82;99882.34;5013496;28;20008;-71
2022/11/09 02:55:04;;;;;;;;;;;;;;;11.27;81.57;99886.59;5029928;28;19925;-70
2022/11/09 02:57:33;;;;;;;;;;;;;;;11.28;81.67;99883.19;5013546;28;20378;-71
2022/11/09 03:00:01;;;;;;;;;;;;;;;11.28;81.40;99884.03;5013632;28;20367;-71
2022/11/09 03:02:31;;;;;;;;;;;;;;;11.30;81.54;99891.72;5014424;28;19972;-72
2022/11/09 03:04:59;;;;;;;;;;;;;;;11.34;81.24;99895.97;5015009;28;19925;-71
2022/11/09 03:07:28;;;;;;;;;;;;;;;11.35;80.83;99892.53;5013174;28;19930;-71
2022/11/09 03:09:58;;;;;;;;;;;;;;;11.36;81.11;99895.13;5013220;28;19979;-71
2022/11/09 03:12:30;;;;;;;;;;;;;;;11.37;80.88;99893.44;4997136;28;19925;-71
2022/11/09 03:15:07;;;;;;;;;;;;;;;11.38;80.90;99897.66;5013421;28;20442;-71
2022/11/09 03:17:39;;;;;;;;;;;;;;;11.38;80.98;99887.44;5013165;28;19936;-70
2022/11/09 03:20:08;;;;;;;;;;;;;;;11.39;80.94;99894.28;5014510;28;19926;-70
2022/11/09 03:22:39;;;;;;;;;;;;;;;11.40;80.77;99893.41;5014161;28;20023;-70
2022/11/09 03:25:10;;;;;;;;;;;;;;;11.41;80.70;99895.13;5014499;28;20291;-71
2022/11/09 03:27:39;;;;;;;;;;;;;;;11.42;80.58;99894.28;5028971;28;19930;-70
2022/11/09 03:30:09;;;;;;;;;;;;;;;11.41;80.56;99895.13;5014163;28;19929;-70
2022/11/09 03:32:39;;;;;;;;;;;;;;;11.35;80.67;99890.84;5013257;28;20303;-70
2022/11/09 03:35:08;;;;;;;;;;;;;;;11.33;80.59;99894.25;5014443;28;19969;-70
2022/11/09 03:37:37;;;;;;;;;;;;;;;11.31;80.58;99901.06;5012940;28;19926;-70
2022/11/09 03:40:06;;;;;;;;;;;;;;;11.32;80.86;99892.56;5012828;28;19925;-70
2022/11/09 03:42:35;;;;;;;;;;;;;;;11.31;81.05;99890.84;5013117;28;20383;-70
2022/11/09 03:45:05;;;;;;;;;;;;;;;11.32;80.77;99895.13;5014402;28;19926;-70
2022/11/09 03:47:34;;;;;;;;;;;;;;;11.29;80.85;99890.88;5014889;28;20367;-70
2022/11/09 03:50:02;;;;;;;;;;;;;;;11.27;80.74;99886.59;5017957;28;19932;-70
2022/11/09 03:52:30;;;;;;;;;;;;;;;11.24;81.13;99882.34;5017920;28;19933;-70
2022/11/09 03:54:59;;;;;;;;;;;;;;;11.29;81.08;99884.91;5017872;28;19937;-71
2022/11/09 03:57:27;;;;;;;;;;;;;;;11.32;80.75;99877.25;5017805;28;19925;-69
2022/11/09 03:59:57;;;;;;;;;;;;;;;11.31;80.66;99878.09;5017695;28;19925;-70
2022/11/09 04:02:25;;;;;;;;;;;;;;;11.29;80.92;99869.56;5017825;28;19925;-70
2022/11/09 04:04:54;;;;;;;;;;;;;;;11.29;80.99;99879.78;5018005;28;19925;-70
2022/11/09 04:07:22;;;;;;;;;;;;;;;11.28;80.83;99878.06;5017623;28;19933;-70
2022/11/09 04:09:50;;;;;;;;;;;;;;;11.28;81.08;99872.97;5017512;28;20371;-70
2022/11/09 04:12:19;;;;;;;;;;;;;;;11.28;80.97;99867.84;5017561;28;20450;-70
2022/11/09 04:14:47;;;;;;;;;;;;;;;11.25;81.23;99868.72;5018626;28;19925;-70
2022/11/09 04:17:17;;;;;;;;;;;;;;;11.20;81.01;99854.25;5018018;28;19980;-70
2022/11/09 04:19:45;;;;;;;;;;;;;;;11.19;81.37;99853.41;5017391;28;20024;-70
2022/11/09 04:22:13;;;;;;;;;;;;;;;11.19;81.28;99855.09;5017552;28;20394;-71
2022/11/09 04:24:42;;;;;;;;;;;;;;;11.19;81.29;99847.44;5017336;28;19965;-71
2022/11/09 04:27:10;;;;;;;;;;;;;;;11.20;81.17;99856.81;5017037;28;19933;-71
2022/11/09 04:29:38;;;;;;;;;;;;;;;11.20;81.16;99846.59;5017292;28;19925;-70
2022/11/09 04:32:07;;;;;;;;;;;;;;;11.20;81.23;99849.16;5017105;28;19926;-71
2022/11/09 04:34:36;;;;;;;;;;;;;;;11.21;81.27;99840.59;5017218;28;19929;-71
2022/11/09 04:37:05;;;;;;;;;;;;;;;11.20;81.31;99847.44;5017165;28;20380;-71
2022/11/09 04:39:33;;;;;;;;;;;;;;;11.19;81.32;99842.31;5017315;28;19926;-71
2022/11/09 04:42:02;;;;;;;;;;;;;;;11.20;81.34;99844.88;5016868;28;19957;-70
2022/11/09 04:44:30;;;;;;;;;;;;;;;11.21;81.28;99841.47;5016949;28;19929;-71
2022/11/09 04:46:58;;;;;;;;;;;;;;;11.25;81.45;99844.88;5016950;28;19953;-70
2022/11/09 04:49:27;;;;;;;;;;;;;;;11.27;81.23;99850.84;5017184;28;19932;-70
2022/11/09 04:51:56;;;;;;;;;;;;;;;11.28;81.16;99847.41;5017037;28;19949;-70
2022/11/09 04:54:25;;;;;;;;;;;;;;;11.27;81.26;99845.72;5016795;28;19976;-70
2022/11/09 04:56:53;;;;;;;;;;;;;;;11.29;81.18;99849.13;5016687;28;19933;-70
2022/11/09 04:59:21;;;;;;;;;;;;;;;11.31;81.12;99855.09;5016256;28;20309;-70
2022/11/09 05:01:50;;;;;;;;;;;;;;;11.30;81.18;99850.84;5016701;28;19933;-70
2022/11/09 05:04:19;;;;;;;;;;;;;;;11.29;81.42;99849.13;5016593;28;19933;-70
2022/11/09 05:06:47;;;;;;;;;;;;;;;11.29;81.35;99854.25;5016486;28;19987;-70
2022/11/09 05:09:17;;;;;;;;;;;;;;;11.31;81.24;99857.63;5015626;28;19926;-70
2022/11/09 05:11:46;;;;;;;;;;;;;;;11.32;81.42;99854.25;5016462;28;19964;-70
2022/11/09 05:14:14;;;;;;;;;;;;;;;11.35;81.23;99859.31;5016379;28;19926;-70
2022/11/09 05:16:42;;;;;;;;;;;;;;;11.38;81.23;99854.22;5017194;28;20395;-70
2022/11/09 05:19:10;;;;;;;;;;;;;;;11.40;81.08;99857.63;5016379;28;19930;-70
2022/11/09 05:21:39;;;;;;;;;;;;;;;11.41;80.98;99846.56;5016140;28;19925;-69
2022/11/09 05:24:06;;;;;;;;;;;;;;;11.42;81.47;99843.16;5016151;28;19926;-70
2022/11/09 05:26:37;;;;;;;;;;;;;;;11.46;81.16;99842.28;5016504;28;19926;-70
2022/11/09 05:29:07;;;;;;;;;;;;;;;11.49;80.82;99844.84;5015929;28;20020;-71
2022/11/09 05:31:36;;;;;;;;;;;;;;;11.49;80.58;99851.66;5016106;28;19925;-70
2022/11/09 05:34:05;;;;;;;;;;;;;;;11.43;80.63;99842.28;5016215;28;20323;-70
2022/11/09 05:36:33;;;;;;;;;;;;;;;11.38;80.79;99855.09;5016091;28;20287;-70
2022/11/09 05:39:02;;;;;;;;;;;;;;;11.40;80.69;99852.50;5016222;28;20379;-70
2022/11/09 05:41:30;;;;;;;;;;;;;;;11.38;80.84;99854.22;5016230;28;19929;-70
2022/11/09 05:44:00;;;;;;;;;;;;;;;11.37;80.90;99855.09;5016085;28;19948;-70
2022/11/09 05:46:30;;;;;;;;;;;;;;;11.36;80.89;99851.69;5015922;28;20340;-70
2022/11/09 05:48:58;;;;;;;;;;;;;;;11.36;81.15;99861.03;5016078;28;19926;-70
2022/11/09 05:51:27;;;;;;;;;;;;;;;11.34;81.14;99852.53;5015663;28;19940;-70
2022/11/09 05:53:55;;;;;;;;;;;;;;;11.32;81.32;99854.25;5015337;28;19926;-70
2022/11/09 05:56:23;;;;;;;;;;;;;;;11.31;81.48;99844.88;5015801;28;20371;-71
2022/11/09 05:58:52;;;;;;;;;;;;;;;11.30;81.60;99843.19;5015518;28;19925;-70
2022/11/09 06:01:22;;;;;;;;;;;;;;;11.31;81.73;99847.41;5015778;28;19936;-70
2022/11/09 06:03:53;;;;;;;;;;;;;;;11.30;81.40;99850.84;5015679;28;20392;-70
2022/11/09 06:06:21;;;;;;;;;;;;;;;11.28;81.52;99845.72;5015409;28;19968;-70
2022/11/09 06:08:50;;;;;;;;;;;;;;;11.30;81.91;99850.84;5015276;28;19932;-70
2022/11/09 06:11:18;;;;;;;;;;;;;;;11.29;81.47;99842.31;5014345;28;20028;-70
2022/11/09 06:13:52;;;;;;;;;;;;;;;11.32;81.63;99846.59;5015587;28;19925;-70
2022/11/09 06:16:22;;;;;;;;;;;;;;;11.29;81.44;99850.00;5015549;28;19925;-70
2022/11/09 06:18:50;;;;;;;;;;;;;;;11.28;81.64;99847.41;5015474;28;19940;-70
2022/11/09 06:21:18;;;;;;;;;;;;;;;11.28;81.63;99837.19;5015166;28;19925;-70
2022/11/09 06:23:48;;;;;;;;;;;;;;;11.30;81.70;99850.84;5014995;28;20383;-70
2022/11/09 06:26:16;;;;;;;;;;;;;;;11.29;81.50;99839.75;5014932;28;19925;-70
2022/11/09 06:28:44;;;;;;;;;;;;;;;11.29;81.55;99838.91;5014704;28;19925;-70
2022/11/09 06:31:13;;;;;;;;;;;;;;;11.30;81.42;99830.41;5014012;28;19925;-70
2022/11/09 06:33:43;;;;;;;;;;;;;;;11.31;81.39;99835.50;5015505;28;20327;-70
2022/11/09 06:36:12;;;;;;;;;;;;;;;11.33;81.38;99846.56;5015517;28;20253;-70
2022/11/09 06:38:40;;;;;;;;;;;;;;;11.36;81.40;99850.81;5015481;28;19929;-70
2022/11/09 06:41:09;;;;;;;;;;;;;;;11.38;81.19;99855.09;5015064;28;19947;-70
2022/11/09 06:43:37;;;;;;;;;;;;;;;11.37;81.24;99855.91;5015309;28;20368;-70
2022/11/09 06:46:06;;;;;;;;;;;;;;;11.41;81.23;99854.22;5015012;28;19925;-70
2022/11/09 06:48:34;;;;;;;;;;;;;;;11.44;81.06;99854.22;5014600;28;19925;-70
2022/11/09 06:51:05;;;;;;;;;;;;;;;11.43;81.28;99852.50;5014546;28;19933;-70
2022/11/09 06:53:34;;;;;;;;;;;;;;;11.45;81.22;99866.13;5014504;28;19925;-70
2022/11/09 06:56:03;;;;;;;;;;;;;;;11.45;81.15;99855.91;5014811;28;19925;-70
2022/11/09 06:58:31;;;;;;;;;;;;;;;11.46;81.09;99857.63;5014459;28;19930;-70
2022/11/09 07:01:00;;;;;;;;;;;;;;;11.48;81.26;99855.91;5014423;28;19932;-70
2022/11/09 07:03:28;;;;;;;;;;;;;;;11.48;81.16;99861.03;5014586;28;19972;-70
2022/11/09 07:05:57;;;;;;;;;;;;;;;11.48;81.41;99863.59;5014425;28;19925;-70
2022/11/09 07:08:27;;;;;;;;;;;;;;;11.52;81.29;99857.59;5014355;28;19933;-70
2022/11/09 07:10:55;;;;;;;;;;;;;;;11.54;81.40;99855.06;5014290;28;19932;-70
2022/11/09 07:13:23;;;;;;;;;;;;;;;11.57;81.78;99866.13;5014381;28;19925;-70
2022/11/09 07:15:53;;;;;;;;;;;;;;;11.60;81.73;99871.25;5013067;28;19929;-70
2022/11/09 07:18:21;;;;;;;;;;;;;;;11.61;81.15;99860.16;5014222;28;20457;-71
2022/11/09 07:20:50;;;;;;;;;;;;;;;11.61;81.21;99870.41;5014219;28;19931;-71
2022/11/09 07:23:18;;;;;;;;;;;;;;;11.60;81.32;99876.34;5014056;28;19964;-71
2022/11/09 07:25:48;;;;;;;;;;;;;;;11.62;81.13;99864.41;5014170;28;20383;-69
2022/11/09 07:28:17;;;;;;;;;;;;;;;11.60;81.15;99871.25;5013874;28;19933;-70
2022/11/09 07:30:49;;;;;;;;;;;;;;;11.63;81.06;99868.69;5014205;28;20398;-70
2022/11/09 07:33:18;;;;;;;;;;;;;;;11.60;81.46;99850.78;5013878;28;19926;-70
2022/11/09 07:35:46;;;;;;;;;;;;;;;11.63;81.14;99855.91;5014313;28;19953;-72
2022/11/09 07:38:16;;;;;;;;;;;;;;;11.66;81.18;99857.59;5014240;28;20295;-71
2022/11/09 07:40:44;;;;;;;;;;;;;;;11.69;81.15;99861.00;5014647;28;20319;-70
2022/11/09 07:43:14;;;;;;;;;;;;;;;11.72;80.99;99855.91;5013890;28;19925;-70
2022/11/09 07:45:48;;;;;;;;;;;;;;;11.73;80.76;99862.72;5018767;28;19956;-71
2022/11/09 07:48:17;;;;;;;;;;;;;;;11.75;80.61;99855.91;5033827;28;20295;-70
2022/11/09 07:50:45;;;;;;;;;;;;;;;11.77;80.46;99843.97;5033751;28;19932;-71
2022/11/09 07:53:14;;;;;;;;;;;;;;;11.81;80.30;99845.63;5033629;28;19925;-70
2022/11/09 07:55:43;;;;;;;;;;;;;;;11.83;80.34;99848.22;5033633;28;19925;-70
2022/11/09 07:58:13;;;;;;;;;;;;;;;11.86;80.07;99849.03;5033521;28;19980;-71
2022/11/09 08:00:43;;;;;;;;;;;;;;;11.88;80.14;99849.03;5033885;28;19929;-70
2022/11/09 08:03:11;;;;;;;;;;;;;;;11.92;80.32;99851.59;5030359;28;19991;-71
2022/11/09 08:05:39;;;;;;;;;;;;;;;11.95;79.91;99850.69;5024966;28;20429;-71
2022/11/09 08:08:10;;;;;;;;;;;;;;;11.96;79.56;99845.59;5033439;28;19971;-70
2022/11/09 08:10:39;;;;;;;;;;;;;;;12.00;79.66;99852.41;5033358;28;19925;-71
2022/11/09 08:13:09;;;;;;;;;;;;;;;12.01;79.48;99846.44;5033705;28;19929;-71
2022/11/09 08:15:38;;;;;;;;;;;;;;;12.02;79.47;99848.13;5027839;28;20028;-73
2022/11/09 08:18:10;;;;;;;;;;;;;;;12.03;79.40;99836.19;5033530;28;20298;-70
2022/11/09 08:20:38;;;;;;;;;;;;;;;12.03;79.45;99834.47;5033753;28;19971;-71
2022/11/09 08:23:07;;;;;;;;;;;;;;;12.06;79.33;99842.16;5033330;28;20379;-72
2022/11/09 08:25:36;;;;;;;;;;;;;;;12.09;79.19;99837.00;5030524;28;19925;-71
2022/11/09 08:28:04;;;;;;;;;;;;;;;12.14;78.94;99848.94;5027149;28;19932;-72
2022/11/09 08:30:39;;;;;;;;;;;;;;;12.15;79.05;99848.06;5033461;28;19932;-71
2022/11/09 08:33:09;;;;;;;;;;;;;;;12.17;78.93;99843.78;5033224;28;19932;-71
2022/11/09 08:35:37;;;;;;;;;;;;;;;12.23;78.97;99854.88;5035841;28;19932;-70
2022/11/09 08:38:06;;;;;;;;;;;;;;;12.23;78.70;99849.75;5037052;28;19925;-71
2022/11/09 08:40:35;;;;;;;;;;;;;;;12.23;78.51;99848.91;5037158;28;19925;-71
2022/11/09 08:43:04;;;;;;;;;;;;;;;12.22;78.23;99848.03;5036952;28;20306;-70
2022/11/09 08:45:34;;;;;;;;;;;;;;;12.21;78.38;99842.94;5036528;28;19937;-72
2022/11/09 08:48:03;;;;;;;;;;;;;;;12.19;78.53;99842.09;5018524;28;19929;-72
2022/11/09 08:50:34;;;;;;;;;;;;;;;12.17;78.53;99833.56;5032155;28;19980;-71
2022/11/09 08:53:02;;;;;;;;;;;;;;;12.17;78.54;99833.56;5026906;28;20521;-73
2022/11/09 08:55:31;;;;;;;;;;;;;;;12.15;78.61;99835.28;5034218;28;19932;-71
2022/11/09 08:58:00;;;;;;;;;;;;;;;12.14;78.34;99831.84;5036500;28;20446;-71
2022/11/09 09:00:29;;;;;;;;;;;;;;;12.13;78.39;99837.00;5036142;28;19933;-71
2022/11/09 09:02:58;;;;;;;;;;;;;;;12.14;78.38;99839.53;5036372;28;20422;-70
2022/11/09 09:05:26;;;;;;;;;;;;;;;12.17;78.47;99833.56;5036246;28;19933;-70
2022/11/09 09:07:56;;;;;;;;;;;;;;;12.19;78.32;99836.97;5036315;28;20298;-71
2022/11/09 09:10:24;;;;;;;;;;;;;;;12.21;78.69;99840.38;5036651;28;20024;-73
2022/11/09 09:12:53;;;;;;;;;;;;;;;12.21;78.28;99848.06;5036537;28;20351;-71
2022/11/09 09:15:22;;;;;;;;;;;;;;;12.23;78.47;99848.91;5036418;28;19968;-70
2022/11/09 09:17:50;;;;;;;;;;;;;;;12.26;78.03;99848.88;5036094;28;19932;-71
2022/11/09 09:20:19;;;;;;;;;;;;;;;12.28;78.19;99857.41;5036362;28;20272;-71
2022/11/09 09:22:47;;;;;;;;;;;;;;;12.29;77.98;99846.28;5036019;28;19968;-71
2022/11/09 09:25:17;;;;;;;;;;;;;;;12.31;78.22;99847.97;5036344;28;19929;-71
2022/11/09 09:27:46;;;;;;;;;;;;;;;12.31;77.87;99847.97;5035885;28;19991;-71
2022/11/09 09:30:14;;;;;;;;;;;;;;;12.33;77.64;99848.84;5035838;28;19925;-70
2022/11/09 09:32:43;;;;;;;;;;;;;;;12.36;77.81;99856.50;5036085;28;19964;-71
2022/11/09 09:35:12;;;;;;;;;;;;;;;12.36;77.88;99845.41;5036669;28;19929;-72
2022/11/09 09:37:41;;;;;;;;;;;;;;;12.37;77.46;99847.13;5035789;28;19925;-71
2022/11/09 09:40:20;;;;;;;;;;;;;;;12.36;77.60;99845.41;5035746;28;19925;-74
2022/11/09 09:42:51;;;;;;;;;;;;;;;12.36;77.35;99845.41;5033990;28;20023;-72
2022/11/09 09:45:20;;;;;;;;;;;;;;;12.36;77.24;99846.25;5024777;28;19926;-70
2022/11/09 09:47:51;;;;;;;;;;;;;;;12.39;77.51;99853.06;5015802;28;20020;-71
2022/11/09 09:50:21;;;;;;;;;;;;;;;12.40;77.48;99844.53;5015746;28;20020;-71
2022/11/09 09:52:55;;;;;;;;;;;;;;;12.39;77.30;99851.38;5016948;28;19960;-71
2022/11/09 09:55:44;;;;;;;;;;;;;;;12.40;77.27;99852.22;5032772;28;19931;-72
2022/11/09 09:58:18;;;;;;;;;;;;;;;12.39;77.08;99856.47;5035575;28;19968;-71
2022/11/09 10:00:48;;;;;;;;;;;;;;;12.38;77.04;99848.81;5032670;28;19968;-71
2022/11/09 10:03:19;;;;;;;;;;;;;;;12.34;77.43;99844.56;5024242;28;20383;-71
2022/11/09 10:05:52;;;;;;;;;;;;;;;12.35;77.24;99851.41;5030679;28;19926;-71
2022/11/09 10:08:25;;;;;;;;;;;;;;;12.34;77.16;99852.25;5015376;28;19973;-72
2022/11/09 10:11:01;;;;;;;;;;;;;;;12.32;77.53;99849.69;5015349;28;19976;-72
2022/11/09 10:13:47;;;;;;;;;;;;;;;12.31;77.44;99847.16;5015666;28;19931;-72
2022/11/09 10:16:19;;;;;;;;;;;;;;;12.31;77.53;99842.03;5030813;28;20335;-71
2022/11/09 10:18:57;;;;;;;;;;;;;;;12.32;77.68;99841.16;5015550;28;20284;-71
2022/11/09 10:21:32;;;;;;;;;;;;;;;12.35;77.53;99838.59;5028062;28;19925;-71
2022/11/09 10:24:06;;;;;;;;;;;;;;;12.36;77.46;99840.28;5035047;28;19971;-72
2022/11/09 10:26:39;;;;;;;;;;;;;;;12.35;77.47;99833.47;5034777;28;19929;-71
2022/11/09 10:29:16;;;;;;;;;;;;;;;12.33;77.29;99837.75;5034103;28;19925;-71
2022/11/09 10:31:45;;;;;;;;;;;;;;;12.32;77.31;99839.47;5019079;28;19983;-71
2022/11/09 10:34:18;;;;;;;;;;;;;;;12.33;77.46;99837.75;5034905;28;19925;-72
2022/11/09 10:36:50;;;;;;;;;;;;;;;12.32;77.38;99833.50;5034604;28;19925;-71
2022/11/09 10:39:19;;;;;;;;;;;;;;;12.37;77.20;99834.31;5033583;28;19959;-71
2022/11/09 10:41:59;;;;;;;;;;;;;;;12.40;77.07;99829.19;5034560;28;19971;-71
2022/11/09 10:44:39;;;;;;;;;;;;;;;12.42;76.81;99819.78;5034219;28;19972;-71
2022/11/09 10:47:19;;;;;;;;;;;;;;;12.43;77.03;99816.38;5033199;28;20006;-70
2022/11/09 10:50:07;;;;;;;;;;;;;;;12.46;77.13;99824.00;5034405;28;19925;-71
2022/11/09 10:52:47;;;;;;;;;;;;;;;12.46;76.72;99818.91;5034717;28;19925;-71
2022/11/09 10:55:29;;;;;;;;;;;;;;;12.43;76.57;99813.81;5034749;28;20012;-71
2022/11/09 10:58:20;;;;;;;;;;;;;;;12.40;76.58;99821.50;5033869;28;20011;-71
2022/11/09 11:01:03;;;;;;;;;;;;;;;12.40;76.59;99817.25;5034684;28;19952;-70
2022/11/09 11:03:43;;;;;;;;;;;;;;;12.44;76.58;99812.94;5034522;28;19925;-71
2022/11/09 11:06:27;;;;;;;;;;;;;;;12.47;76.81;99812.94;5034138;28;19932;-71
2022/11/09 11:09:14;;;;;;;;;;;;;;;12.51;76.25;99814.59;5034138;28;19925;-71
2022/11/09 11:12:13;;;;;;;;;;;;;;;12.48;76.45;99809.50;5034153;28;20012;-71
2022/11/09 11:14:53;;;;;;;;;;;;;;;12.51;76.35;99805.22;5034360;28;19940;-71
2022/11/09 11:17:36;;;;;;;;;;;;;;;12.52;76.87;99800.94;5033995;28;20008;-71
2022/11/09 11:20:27;;;;;;;;;;;;;;;12.51;76.74;99807.78;5034028;28;19926;-71
2022/11/09 11:23:11;;;;;;;;;;;;;;;12.56;76.73;99792.38;5026306;28;19926;-71
2022/11/09 11:26:00;;;;;;;;;;;;;;;12.58;76.53;99795.78;5014128;28;19926;-71
2022/11/09 11:28:44;;;;;;;;;;;;;;;12.55;76.70;99806.88;5014123;28;20387;-71
2022/11/09 11:31:23;;;;;;;;;;;;;;;12.51;76.88;99804.34;5014455;28;19984;-71
2022/11/09 11:34:08;;;;;;;;;;;;;;;12.43;76.96;99806.97;5014440;28;19948;-71
2022/11/09 11:36:52;;;;;;;;;;;;;;;12.38;76.94;99795.06;5015867;28;20386;-70
2022/11/09 11:39:36;;;;;;;;;;;;;;;12.39;77.30;99799.31;5033982;28;19929;-70
2022/11/09 11:42:25;;;;;;;;;;;;;;;12.35;77.47;99793.38;5033845;28;19933;-71
2022/11/09 11:45:14;;;;;;;;;;;;;;;12.32;77.81;99797.66;5033987;28;19929;-71
2022/11/09 11:48:22;;;;;;;;;;;;;;;12.32;77.92;99792.53;5033261;28;19932;-71
2022/11/09 11:51:09;;;;;;;;;;;;;;;12.28;77.74;99795.97;5033332;28;19932;-70
2022/11/09 11:53:56;;;;;;;;;;;;;;;12.28;78.00;99796.84;5033963;28;20020;-72
2022/11/09 11:56:38;;;;;;;;;;;;;;;12.27;77.79;99796.81;5034282;28;19960;-70
2022/11/09 11:59:28;;;;;;;;;;;;;;;12.26;78.29;99792.59;5034024;28;19929;-70
2022/11/09 12:02:18;;;;;;;;;;;;;;;12.24;77.91;99794.31;5033343;28;20371;-70
2022/11/09 12:05:13;;;;;;;;;;;;;;;12.21;78.29;99791.75;5033462;28;19932;-71
2022/11/09 12:07:58;;;;;;;;;;;;;;;12.18;78.11;99791.78;5023444;28;20019;-70
2022/11/09 12:10:46;;;;;;;;;;;;;;;12.20;78.34;99797.72;5036179;28;19925;-70
2022/11/09 12:13:37;;;;;;;;;;;;;;;12.22;78.45;99790.88;5052950;28;19929;-70
2022/11/09 12:16:21;;;;;;;;;;;;;;;12.21;78.65;99790.06;5037422;28;20372;-70
2022/11/09 12:19:15;;;;;;;;;;;;;;;12.18;78.63;99795.19;5036912;28;19925;-72
2022/11/09 12:21:58;;;;;;;;;;;;;;;12.13;78.65;99801.19;5037169;28;20291;-71
2022/11/09 12:24:43;;;;;;;;;;;;;;;12.13;78.74;99798.63;5037044;28;19925;-70
2022/11/09 12:27:34;;;;;;;;;;;;;;;12.09;78.72;99796.06;5036745;28;20326;-72
2022/11/09 12:30:16;;;;;;;;;;;;;;;12.07;78.89;99792.66;5037021;28;19932;-70
2022/11/09 12:32:58;;;;;;;;;;;;;;;12.07;78.78;99796.94;5036971;28;19925;-71
2022/11/09 12:35:40;;;;;;;;;;;;;;;12.06;78.91;99798.66;5037234;28;19925;-71
2022/11/09 12:38:22;;;;;;;;;;;;;;;12.05;78.51;99794.38;5037005;28;19929;-70
2022/11/09 12:41:05;;;;;;;;;;;;;;;12.08;78.80;99794.38;5036831;28;19926;-70
2022/11/09 12:43:47;;;;;;;;;;;;;;;12.08;78.62;99784.16;5037189;28;20435;-70
2022/11/09 12:46:30;;;;;;;;;;;;;;;12.07;78.72;99790.13;5036680;28;20019;-71
2022/11/09 12:49:16;;;;;;;;;;;;;;;12.05;79.28;99789.28;5036658;28;19956;-71
2022/11/09 12:51:55;;;;;;;;;;;;;;;12.07;78.59;99797.78;5035743;28;20013;-70
2022/11/09 12:54:39;;;;;;;;;;;;;;;12.11;78.89;99798.63;5036416;28;20387;-70
2022/11/09 12:57:23;;;;;;;;;;;;;;;12.11;78.57;99785.84;5034898;28;19936;-71
2022/11/09 13:00:05;;;;;;;;;;;;;;;12.13;78.79;99785.81;5025865;28;19960;-70
2022/11/09 13:02:53;;;;;;;;;;;;;;;12.11;78.88;99790.97;5036483;28;19999;-70
2022/11/09 13:05:34;;;;;;;;;;;;;;;12.13;78.78;99788.38;5035275;28;19925;-70
2022/11/09 13:08:16;;;;;;;;;;;;;;;12.12;78.95;99786.69;5032510;28;19926;-71
2022/11/09 13:11:07;;;;;;;;;;;;;;;12.12;78.93;99784.97;5036713;28;19957;-70
2022/11/09 13:13:48;;;;;;;;;;;;;;;12.14;78.98;99782.41;5036299;28;19936;-70